Time;durP1;ratioP1;P1;durP2;ratioP2;P2;SDS_P1;SDS_P2;PMS_P1;PMS_P2;Temp;Humidity;BMP_temperature;BMP_pressure;BME280_temperature;BME280_humidity;BME280_pressure;Samples;Min_cycle;Max_cycle;Signal;HPM_P1;HPM_P2
2022/01/31 00:01:27;;;;;;;22.08;5.25;;;;;;;;;;5017182;28;20088;-63
2022/01/31 00:03:53;;;;;;;21.23;4.55;;;4.40;99.90;;;;;;4999925;28;20052;-64
2022/01/31 00:06:18;;;;;;;26.40;6.60;;;4.50;99.90;;;;;;5017638;28;20042;-63
2022/01/31 00:08:44;;;;;;;23.70;5.50;;;4.40;99.90;;;;;;5017127;28;20076;-63
2022/01/31 00:11:11;;;;;;;17.27;4.75;;;4.60;99.90;;;;;;5016346;28;20046;-63
2022/01/31 00:13:42;;;;;;;13.88;4.65;;;;;;;;;;5017040;28;20092;-64
2022/01/31 00:16:13;;;;;;;17.05;5.90;;;4.60;99.90;;;;;;4999649;28;20045;-62
2022/01/31 00:18:40;;;;;;;15.88;5.22;;;4.50;99.90;;;;;;5015484;28;20042;-63
2022/01/31 00:21:06;;;;;;;24.52;6.25;;;;;;;;;;5016475;28;20042;-62
2022/01/31 00:23:32;;;;;;;19.63;5.47;;;4.60;99.90;;;;;;5016327;28;20478;-62
2022/01/31 00:25:57;;;;;;;19.80;6.80;;;4.60;99.90;;;;;;5016692;28;20046;-62
2022/01/31 00:28:23;;;;;;;17.67;5.88;;;4.60;99.90;;;;;;4998638;28;20510;-62
2022/01/31 00:30:49;;;;;;;26.65;8.63;;;;;;;;;;5016998;28;20588;-62
2022/01/31 00:33:14;;;;;;;20.08;6.45;;;4.70;99.90;;;;;;5016931;28;20112;-62
2022/01/31 00:35:40;;;;;;;24.77;6.38;;;4.50;99.90;;;;;;5017093;28;20046;-62
2022/01/31 00:38:06;;;;;;;20.38;7.57;;;4.70;99.90;;;;;;4998398;28;20092;-62
2022/01/31 00:40:32;;;;;;;23.30;6.97;;;4.70;99.90;;;;;;5016457;28;20213;-62
2022/01/31 00:42:58;;;;;;;16.02;7.72;;;;;;;;;;5015460;28;20125;-62
2022/01/31 00:45:27;;;;;;;16.75;6.93;;;4.70;99.90;;;;;;5014877;28;20104;-62
2022/01/31 00:48:05;;;;;;;25.90;6.97;;;4.80;99.90;;;;;;5016073;28;20117;-62
2022/01/31 00:50:39;;;;;;;23.48;6.80;;;4.60;99.90;;;;;;5016209;28;20086;-63
2022/01/31 00:53:06;;;;;;;26.25;7.60;;;4.60;99.90;;;;;;4998993;28;20084;-63
2022/01/31 00:55:31;;;;;;;16.48;8.85;;;4.70;99.90;;;;;;4999055;28;20117;-63
2022/01/31 00:57:57;;;;;;;24.90;7.90;;;4.80;99.90;;;;;;5014874;28;20124;-62
2022/01/31 01:00:23;;;;;;;23.45;8.20;;;4.80;99.90;;;;;;5015262;28;20045;-62
2022/01/31 01:02:48;;;;;;;23.42;8.57;;;4.70;99.90;;;;;;5015623;28;20553;-62
2022/01/31 01:05:15;;;;;;;24.20;8.80;;;4.80;99.90;;;;;;5014886;28;20042;-62
2022/01/31 01:07:45;;;;;;;20.13;8.32;;;4.70;99.90;;;;;;5014153;28;20037;-62
2022/01/31 01:10:15;;;;;;;20.50;8.68;;;4.60;99.90;;;;;;5013892;28;20054;-62
2022/01/31 01:12:42;;;;;;;29.60;9.52;;;4.80;99.90;;;;;;5015193;28;20543;-63
2022/01/31 01:15:08;;;;;;;27.77;10.00;;;4.60;99.90;;;;;;5014983;28;20045;-63
2022/01/31 01:17:34;;;;;;;22.88;10.90;;;4.50;99.90;;;;;;4999103;28;20088;-62
2022/01/31 01:20:00;;;;;;;28.55;12.50;;;;;;;;;;5014226;28;20476;-63
2022/01/31 01:22:26;;;;;;;33.67;11.35;;;4.50;99.90;;;;;;5016026;28;20510;-63
2022/01/31 01:24:51;;;;;;;29.40;12.05;;;4.50;99.90;;;;;;5031405;28;20049;-63
2022/01/31 01:27:21;;;;;;;33.30;13.00;;;;;;;;;;5015105;28;20038;-63
2022/01/31 01:29:47;;;;;;;30.98;13.15;;;4.30;99.90;;;;;;5014105;28;20050;-62
2022/01/31 01:32:13;;;;;;;26.42;13.20;;;4.30;99.90;;;;;;5014116;28;20099;-62
2022/01/31 01:34:39;;;;;;;34.38;13.15;;;;;;;;;;5014058;28;20059;-62
2022/01/31 01:37:06;;;;;;;26.60;12.65;;;;;;;;;;5013615;28;20042;-61
2022/01/31 01:39:32;;;;;;;30.52;12.35;;;;;;;;;;5014811;28;20112;-61
2022/01/31 01:41:58;;;;;;;25.85;12.48;;;;;;;;;;5013541;28;20041;-61
2022/01/31 01:44:42;;;;;;;26.70;12.80;;;4.00;99.90;;;;;;5013462;28;20056;-62
2022/01/31 01:47:08;;;;;;;24.67;13.30;;;4.10;99.90;;;;;;5014689;28;20400;-62
2022/01/31 01:49:34;;;;;;;24.13;11.85;;;;;;;;;;5013667;28;20105;-62
2022/01/31 01:52:00;;;;;;;20.98;11.35;;;;;;;;;;5013110;28;20130;-63
2022/01/31 01:54:26;;;;;;;30.75;11.98;;;4.10;99.90;;;;;;5015005;28;20052;-63
2022/01/31 01:56:52;;;;;;;23.58;13.02;;;;;;;;;;5014919;28;20253;-62
2022/01/31 01:59:18;;;;;;;22.38;10.90;;;;;;;;;;5013077;28;20041;-62
2022/01/31 02:01:44;;;;;;;27.25;13.18;;;;;;;;;;4996715;28;20073;-62
2022/01/31 02:04:09;;;;;;;20.35;11.90;;;4.10;99.90;;;;;;5014577;28;20081;-62
2022/01/31 02:06:35;;;;;;;20.80;12.00;;;4.10;99.90;;;;;;5014389;28;20084;-62
2022/01/31 02:09:02;;;;;;;19.98;11.43;;;4.10;99.90;;;;;;5014246;28;20041;-62
2022/01/31 02:11:28;;;;;;;25.77;11.27;;;4.20;99.90;;;;;;5015168;28;20566;-62
2022/01/31 02:13:53;;;;;;;18.05;10.38;;;4.30;99.90;;;;;;5015267;28;20045;-62
2022/01/31 02:16:19;;;;;;;19.30;11.70;;;;;;;;;;4997193;28;20042;-62
2022/01/31 02:18:50;;;;;;;24.80;10.23;;;;;;;;;;5013598;28;20184;-63
2022/01/31 02:21:16;;;;;;;16.30;11.05;;;;;;;;;;5015639;28;20053;-61
2022/01/31 02:23:42;;;;;;;18.48;10.32;;;;;;;;;;5015819;28;20169;-62
2022/01/31 02:26:08;;;;;;;17.52;9.75;;;;;;;;;;5017623;28;20045;-62
2022/01/31 02:28:36;;;;;;;20.95;10.38;;;4.40;99.90;;;;;;5001466;28;20101;-62
2022/01/31 02:31:02;;;;;;;21.52;9.77;;;4.40;99.90;;;;;;5019388;28;20046;-63
2022/01/31 02:33:28;;;;;;;18.90;9.80;;;;;;;;;;5018885;28;20046;-62
2022/01/31 02:35:56;;;;;;;15.00;9.07;;;;;;;;;;5017627;28;20113;-62
2022/01/31 02:38:22;;;;;;;17.38;8.60;;;;;;;;;;5016485;28;20048;-61
2022/01/31 02:40:50;;;;;;;17.15;7.95;;;4.30;99.90;;;;;;5016894;28;20044;-62
2022/01/31 02:43:23;;;;;;;17.25;8.35;;;4.50;99.90;;;;;;5018701;28;20057;-62
2022/01/31 02:45:48;;;;;;;16.08;8.27;;;4.30;99.90;;;;;;5017160;28;20038;-62
2022/01/31 02:48:17;;;;;;;13.88;7.95;;;4.40;99.90;;;;;;5016622;28;20042;-62
2022/01/31 02:50:43;;;;;;;21.20;8.85;;;4.40;99.90;;;;;;5017141;28;20058;-62
2022/01/31 02:55:38;;;;;;;19.02;8.10;;;4.40;99.90;;;;;;5016687;28;20060;-62
2022/01/31 02:58:04;;;;;;;14.75;7.60;;;4.40;99.90;;;;;;5016655;28;20407;-62
2022/01/31 03:00:30;;;;;;;15.27;6.97;;;;;;;;;;5017865;28;20045;-62
2022/01/31 03:02:55;;;;;;;13.20;7.75;;;4.40;99.90;;;;;;5018134;28;20049;-62
2022/01/31 03:05:21;;;;;;;18.60;6.95;;;4.50;99.90;;;;;;5017293;28;20070;-62
2022/01/31 03:07:46;;;;;;;17.25;8.20;;;4.60;99.90;;;;;;5016445;28;20049;-62
2022/01/31 03:10:12;;;;;;;15.57;6.88;;;;;;;;;;5016373;28;20054;-61
2022/01/31 03:12:38;;;;;;;13.40;6.70;;;;;;;;;;5017431;28;20148;-61
2022/01/31 03:15:05;;;;;;;15.32;6.53;;;;;;;;;;5017485;28;20442;-61
2022/01/31 03:17:30;;;;;;;17.45;6.35;;;5.00;99.90;;;;;;5018176;28;20124;-62
2022/01/31 03:19:56;;;;;;;20.60;5.97;;;4.80;99.90;;;;;;5018856;28;20069;-63
2022/01/31 03:22:23;;;;;;;32.88;7.18;;;;;;;;;;5001652;28;20195;-63
2022/01/31 03:24:49;;;;;;;21.10;4.90;;;5.20;99.90;;;;;;5019182;28;20053;-61
2022/01/31 03:27:15;;;;;;;22.05;5.30;;;5.30;99.90;;;;;;5018220;28;20037;-61
2022/01/31 03:29:41;;;;;;;24.85;5.22;;;5.10;99.90;;;;;;5017887;28;20034;-62
2022/01/31 03:32:07;;;;;;;15.75;4.13;;;;;;;;;;5017417;28;20038;-62
2022/01/31 03:34:33;;;;;;;23.00;4.47;;;;;;;;;;5015440;28;20045;-62
2022/01/31 03:36:59;;;;;;;20.67;4.20;;;;;;;;;;4999360;28;20054;-63
2022/01/31 03:39:25;;;;;;;29.00;5.22;;;;;;;;;;5015446;28;20050;-62
2022/01/31 03:41:51;;;;;;;23.15;4.93;;;5.50;99.90;;;;;;5015989;28;20046;-63
2022/01/31 03:44:16;;;;;;;25.55;5.00;;;5.80;99.90;;;;;;5016349;28;20046;-62
2022/01/31 03:46:42;;;;;;;20.52;4.78;;;5.60;99.90;;;;;;4999561;28;20110;-63
2022/01/31 03:49:08;;;;;;;19.75;4.32;;;5.70;99.90;;;;;;5015891;28;20049;-63
2022/01/31 03:51:33;;;;;;;24.38;4.22;;;5.80;99.90;;;;;;5017952;28;20411;-62
2022/01/31 03:53:59;;;;;;;21.65;3.88;;;5.80;99.90;;;;;;5016977;28;20535;-63
2022/01/31 03:56:25;;;;;;;20.45;4.88;;;;;;;;;;5016949;28;20076;-62
2022/01/31 03:58:51;;;;;;;17.83;4.45;;;;;;;;;;5000260;28;20084;-63
2022/01/31 04:01:17;;;;;;;20.20;3.45;;;;;;;;;;5015309;28;20078;-64
2022/01/31 04:03:43;;;;;;;17.20;3.80;;;5.80;99.90;;;;;;4999938;28;20050;-61
2022/01/31 04:06:08;;;;;;;20.02;3.05;;;6.00;99.90;;;;;;5017310;28;20388;-63
2022/01/31 04:08:34;;;;;;;24.10;4.00;;;;;;;;;;5016491;28;20133;-61
2022/01/31 04:11:00;;;;;;;17.63;3.60;;;6.00;99.90;;;;;;5016177;28;20053;-62
2022/01/31 04:13:26;;;;;;;15.43;3.08;;;;;;;;;;5016082;28;20104;-62
2022/01/31 04:15:52;;;;;;;19.00;3.45;;;;;;;;;;5017020;28;20125;-61
2022/01/31 04:18:19;;;;;;;25.20;4.65;;;6.20;99.90;;;;;;5015649;28;20096;-61
2022/01/31 04:20:44;;;;;;;13.82;3.05;;;6.00;99.90;;;;;;5015391;28;20037;-61
2022/01/31 04:23:13;;;;;;;11.82;3.00;;;6.10;99.90;;;;;;5015386;28;20042;-62
2022/01/31 04:28:25;;;;;;;15.00;2.97;;;6.10;99.90;;;;;;5014870;28;20104;-62
2022/01/31 04:31:14;;;;;;;16.65;3.05;;;6.10;99.90;;;;;;5014698;28;20128;-63
2022/01/31 04:33:41;;;;;;;27.70;5.25;;;6.00;99.90;;;;;;5015846;28;20067;-63
2022/01/31 04:36:09;;;;;;;18.55;4.72;;;6.00;99.90;;;;;;4998573;28;20045;-63
2022/01/31 04:38:36;;;;;;;22.13;3.42;;;;;;;;;;5015902;28;20381;-63
2022/01/31 04:41:02;;;;;;;16.65;4.00;;;6.00;99.90;;;;;;5014699;28;20034;-63
2022/01/31 04:43:28;;;;;;;13.70;3.60;;;5.90;99.90;;;;;;4997972;28;20136;-63
2022/01/31 04:45:56;;;;;;;21.73;4.15;;;6.00;99.90;;;;;;5015394;28;20081;-63
2022/01/31 04:48:22;;;;;;;23.95;4.35;;;;;;;;;;5014601;28;20048;-63
2022/01/31 04:50:48;;;;;;;19.13;4.07;;;;;;;;;;5014681;28;20053;-62
2022/01/31 04:53:14;;;;;;;12.93;3.33;;;6.00;99.90;;;;;;5014678;28;20049;-61
2022/01/31 04:55:40;;;;;;;13.32;2.92;;;;;;;;;;5016053;28;20096;-62
2022/01/31 04:58:07;;;;;;;24.50;4.22;;;;;;;;;;5015146;28;20158;-63
2022/01/31 05:00:33;;;;;;;21.77;3.83;;;;;;;;;;5014830;28;20060;-63
2022/01/31 05:03:00;;;;;;;18.02;4.10;;;;;;;;;;5015744;28;20061;-63
2022/01/31 05:05:28;;;;;;;18.38;3.15;;;6.00;99.90;;;;;;5014985;28;20057;-63
2022/01/31 05:07:55;;;;;;;20.20;3.83;;;6.20;99.90;;;;;;5015057;28;20042;-62
2022/01/31 05:10:21;;;;;;;20.33;2.92;;;6.20;99.90;;;;;;5014229;28;20046;-63
2022/01/31 05:12:46;;;;;;;4.65;1.83;;;6.10;99.90;;;;;;5013904;28;20522;-63
2022/01/31 05:15:12;;;;;;;7.00;1.27;;;6.00;99.90;;;;;;5014932;28;20407;-63
2022/01/31 05:17:38;;;;;;;5.03;1.35;;;6.00;99.90;;;;;;5013612;28;20046;-63
2022/01/31 05:20:05;;;;;;;3.83;1.02;;;5.70;99.90;;;;;;4997688;28;20081;-63
2022/01/31 05:22:30;;;;;;;6.57;1.27;;;;;;;;;;5000633;28;20037;-63
2022/01/31 05:24:56;;;;;;;4.30;1.23;;;;;;;;;;5034646;28;20566;-63
2022/01/31 05:27:22;;;;;;;4.30;1.10;;;;;;;;;;5023809;28;20069;-63
2022/01/31 05:29:48;;;;;;;4.40;1.20;;;5.50;99.90;;;;;;5009865;28;20049;-63
2022/01/31 05:32:14;;;;;;;5.93;1.40;;;;;;;;;;5012624;28;20045;-63
2022/01/31 05:34:40;;;;;;;5.00;1.58;;;;;;;;;;5029328;28;20060;-63
2022/01/31 05:37:06;;;;;;;3.72;1.50;;;5.60;99.90;;;;;;5030061;28;20049;-63
2022/01/31 05:39:32;;;;;;;9.45;2.35;;;5.50;99.90;;;;;;5031474;28;20479;-63
2022/01/31 05:41:58;;;;;;;6.53;1.60;;;;;;;;;;5028808;28;20038;-63
2022/01/31 05:44:24;;;;;;;6.75;1.50;;;;;;;;;;5031115;28;20043;-63
2022/01/31 05:46:51;;;;;;;9.15;1.85;;;5.60;99.90;;;;;;5028361;28;20033;-63
2022/01/31 05:49:17;;;;;;;9.00;1.88;;;;;;;;;;5028023;28;20047;-63
2022/01/31 05:51:54;;;;;;;8.07;1.70;;;5.50;99.90;;;;;;5026104;28;20576;-64
2022/01/31 05:54:20;;;;;;;12.90;2.10;;;;;;;;;;5025038;28;20045;-64
2022/01/31 05:56:46;;;;;;;14.52;2.67;;;5.60;99.90;;;;;;5028768;28;20041;-64
2022/01/31 05:59:12;;;;;;;11.60;2.10;;;;;;;;;;5029952;28;20107;-64
2022/01/31 06:01:39;;;;;;;14.82;2.65;;;;;;;;;;5030977;28;20029;-64
2022/01/31 06:04:09;;;;;;;17.55;2.88;;;;;;;;;;5031086;28;20121;-64
2022/01/31 06:06:35;;;;;;;14.85;2.85;;;5.50;99.90;;;;;;5029728;28;20047;-64
2022/01/31 06:09:02;;;;;;;16.80;2.60;;;5.60;99.90;;;;;;5030855;28;20048;-64
2022/01/31 06:11:31;;;;;;;14.98;3.55;;;;;;;;;;5030450;28;20046;-62
2022/01/31 06:13:57;;;;;;;20.85;4.68;;;;;;;;;;5031481;28;20053;-63
2022/01/31 06:16:23;;;;;;;12.75;2.40;;;;;;;;;;5027625;28;20486;-64
2022/01/31 06:18:49;;;;;;;19.20;2.80;;;;;;;;;;5029074;28;20041;-64
2022/01/31 06:21:15;;;;;;;12.82;2.63;;;;;;;;;;5029350;28;20077;-64
2022/01/31 06:23:41;;;;;;;15.43;3.10;;;;;;;;;;5028199;28;20404;-64
2022/01/31 06:26:07;;;;;;;16.58;2.85;;;;;;;;;;5027887;28;20058;-64
2022/01/31 06:28:33;;;;;;;13.55;2.85;;;;;;;;;;5025808;28;20048;-64
2022/01/31 06:30:59;;;;;;;16.00;4.35;;;5.80;99.90;;;;;;5021364;28;20045;-64
2022/01/31 06:33:25;;;;;;;15.27;2.40;;;;;;;;;;5025111;28;20050;-63
2022/01/31 06:35:50;;;;;;;12.35;2.20;;;5.90;99.90;;;;;;5028742;28;20037;-63
2022/01/31 06:38:16;;;;;;;16.65;2.80;;;5.90;99.90;;;;;;5026358;28;20522;-63
2022/01/31 06:40:42;;;;;;;12.07;2.00;;;5.90;99.90;;;;;;5015747;28;20054;-63
2022/01/31 06:43:08;;;;;;;12.48;2.15;;;5.90;99.90;;;;;;5027144;28;20148;-63
2022/01/31 06:45:34;;;;;;;9.77;1.75;;;5.90;99.90;;;;;;5026137;28;20161;-63
2022/01/31 06:48:00;;;;;;;6.97;2.00;;;;;;;;;;5011394;28;20077;-63
2022/01/31 06:50:26;;;;;;;6.65;2.15;;;5.80;99.90;;;;;;5011210;28;20045;-63
2022/01/31 06:52:55;;;;;;;10.30;2.55;;;5.80;99.90;;;;;;5019224;28;20529;-63
2022/01/31 06:55:22;;;;;;;11.48;2.42;;;;;;;;;;5012410;28;20048;-63
2022/01/31 06:57:49;;;;;;;9.32;2.08;;;5.90;99.90;;;;;;5011866;28;20496;-63
2022/01/31 07:00:17;;;;;;;7.03;1.63;;;5.80;99.90;;;;;;5011892;28;20052;-62
2022/01/31 07:02:44;;;;;;;10.77;2.03;;;;;;;;;;5031408;28;20067;-62
2022/01/31 07:05:09;;;;;;;19.33;3.20;;;;;;;;;;5019702;28;20117;-63
2022/01/31 07:07:35;;;;;;;9.90;2.50;;;5.70;99.90;;;;;;5009175;28;20129;-63
2022/01/31 07:10:02;;;;;;;12.38;2.08;;;5.70;99.90;;;;;;5011587;28;20056;-63
2022/01/31 07:12:33;;;;;;;9.27;2.22;;;5.70;99.90;;;;;;5015564;28;20068;-63
2022/01/31 07:15:00;;;;;;;10.02;2.33;;;5.70;99.90;;;;;;5014164;28;20108;-63
2022/01/31 07:17:25;;;;;;;18.58;3.33;;;5.60;99.90;;;;;;5015447;28;20042;-63
2022/01/31 07:19:51;;;;;;;11.73;2.97;;;5.80;99.90;;;;;;5016735;28;20399;-63
2022/01/31 07:22:19;;;;;;;12.52;2.67;;;5.80;99.90;;;;;;5014635;28;20029;-63
2022/01/31 07:24:52;;;;;;;16.05;2.90;;;5.70;99.90;;;;;;5015078;28;20042;-63
2022/01/31 07:27:18;;;;;;;12.68;2.45;;;;;;;;;;5013620;28;20038;-62
2022/01/31 07:29:45;;;;;;;14.05;3.22;;;5.80;99.90;;;;;;5012755;28;20393;-63
2022/01/31 07:32:12;;;;;;;12.18;3.63;;;;;;;;;;5013934;28;20046;-63
2022/01/31 07:34:40;;;;;;;18.88;3.67;;;5.90;99.90;;;;;;5015285;28;20500;-63
2022/01/31 07:37:05;;;;;;;16.55;3.20;;;5.90;99.90;;;;;;5013989;28;20045;-63
2022/01/31 07:39:31;;;;;;;16.02;3.15;;;6.00;99.90;;;;;;5015520;28;20124;-63
2022/01/31 07:41:57;;;;;;;18.52;3.08;;;6.10;99.90;;;;;;5011922;28;20483;-64
2022/01/31 07:44:23;;;;;;;15.85;3.70;;;6.00;99.90;;;;;;5013729;28;20104;-63
2022/01/31 07:46:49;;;;;;;9.85;2.78;;;5.90;99.90;;;;;;5013650;28;20509;-63
2022/01/31 07:49:15;;;;;;;13.30;2.55;;;6.00;99.90;;;;;;5014763;28;20046;-63
2022/01/31 07:51:41;;;;;;;19.15;2.72;;;6.00;99.90;;;;;;5013432;28;20167;-63
2022/01/31 07:54:07;;;;;;;14.18;2.80;;;6.00;99.90;;;;;;5013662;28;20440;-63
2022/01/31 07:56:34;;;;;;;10.20;2.72;;;;;;;;;;5012454;28;20042;-62
2022/01/31 07:58:59;;;;;;;12.40;2.25;;;6.10;99.90;;;;;;5011559;28;20492;-63
2022/01/31 08:01:26;;;;;;;16.45;3.00;;;6.20;99.90;;;;;;5017159;28;20038;-63
2022/01/31 08:03:52;;;;;;;12.52;2.25;;;;;;;;;;5017458;28;20053;-63
2022/01/31 08:06:18;;;;;;;9.63;2.13;;;6.20;99.90;;;;;;5016870;28;20085;-63
2022/01/31 08:08:44;;;;;;;17.48;3.03;;;;;;;;;;5016769;28;20087;-63
2022/01/31 08:11:10;;;;;;;18.75;4.53;;;;;;;;;;5014713;28;20057;-61
2022/01/31 08:13:36;;;;;;;17.58;3.13;;;6.30;99.90;;;;;;5015905;28;20054;-63
2022/01/31 08:18:29;;;;;;;27.90;3.85;;;6.40;99.90;;;;;;5022143;28;20056;-63
2022/01/31 08:20:55;;;;;;;23.85;7.00;;;6.40;99.90;;;;;;5024386;28;20038;-63
2022/01/31 08:23:21;;;;;;;25.02;3.78;;;6.40;99.90;;;;;;5016107;28;20045;-64
2022/01/31 08:25:49;;;;;;;28.27;5.82;;;6.40;99.90;;;;;;5010361;28;20030;-63
2022/01/31 08:28:16;;;;;;;15.98;3.67;;;6.70;99.90;;;;;;5009770;28;20054;-63
2022/01/31 08:31:01;;;;;;;12.07;3.90;;;;;;;;;;5011537;28;20034;-64
2022/01/31 08:33:42;;;;;;;19.73;3.45;;;;;;;;;;5010521;28;20054;-64
2022/01/31 08:36:08;;;;;;;12.73;1.90;;;;;;;;;;5011367;28;20050;-64
2022/01/31 08:38:36;;;;;;;14.20;2.75;;;;;;;;;;5012924;28;20042;-63
2022/01/31 08:41:02;;;;;;;12.43;2.13;;;6.80;99.90;;;;;;5013587;28;20103;-63
2022/01/31 08:43:28;;;;;;;14.05;2.63;;;6.70;99.90;;;;;;5014064;28;20041;-65
2022/01/31 08:45:56;;;;;;;17.25;2.40;;;6.60;99.90;;;;;;5012707;28;20034;-63
2022/01/31 08:48:23;;;;;;;19.02;2.42;;;6.60;99.90;;;;;;5011347;28;20049;-64
2022/01/31 08:50:49;;;;;;;16.88;2.65;;;6.80;99.90;;;;;;5011772;28;20037;-63
2022/01/31 08:53:15;;;;;;;15.00;2.53;;;;;;;;;;5023807;28;20407;-63
2022/01/31 08:55:51;;;;;;;17.00;2.83;;;6.80;99.90;;;;;;5021847;28;20042;-63
2022/01/31 08:58:17;;;;;;;11.25;2.70;;;6.90;99.90;;;;;;4997131;28;20069;-63
2022/01/31 09:00:47;;;;;;;10.38;2.90;;;7.00;99.90;;;;;;5022408;28;20077;-64
2022/01/31 09:05:40;;;;;;;7.90;1.98;;;6.90;99.90;;;;;;5010849;28;20046;-64
2022/01/31 09:08:06;;;;;;;11.38;2.55;;;6.90;99.90;;;;;;5017786;28;20132;-64
2022/01/31 09:10:32;;;;;;;8.63;1.88;;;;;;;;;;5023377;28;20503;-66
2022/01/31 09:12:58;;;;;;;9.07;2.08;;;7.30;99.90;;;;;;5016692;28;20108;-65
2022/01/31 09:15:24;;;;;;;15.05;2.17;;;7.40;99.90;;;;;;5006719;28;20365;-64
2022/01/31 09:17:49;;;;;;;9.55;1.80;;;;;;;;;;5011818;28;20088;-63
2022/01/31 09:20:18;;;;;;;6.88;2.00;;;7.10;99.90;;;;;;5017691;28;20492;-63
2022/01/31 09:22:43;;;;;;;10.73;2.70;;;;;;;;;;5019282;28;20038;-63
2022/01/31 09:25:11;;;;;;;10.20;1.92;;;7.30;99.90;;;;;;5016465;28;20038;-64
2022/01/31 09:27:37;;;;;;;11.95;2.10;;;7.20;99.90;;;;;;5017794;28;20069;-64
2022/01/31 09:30:07;;;;;;;12.18;1.88;;;;;;;;;;5011082;28;20081;-64
2022/01/31 09:32:32;;;;;;;9.35;2.35;;;7.00;99.90;;;;;;5009846;28;20416;-64
2022/01/31 09:34:58;;;;;;;8.80;2.28;;;7.20;99.90;;;;;;5011155;28;20037;-64
2022/01/31 09:37:24;;;;;;;12.90;2.47;;;7.10;99.90;;;;;;5011619;28;20073;-64
2022/01/31 09:39:51;;;;;;;7.75;2.00;;;;;;;;;;5010318;28;20484;-64
2022/01/31 09:42:30;;;;;;;10.80;2.38;;;7.10;99.90;;;;;;5010307;28;20046;-64
2022/01/31 09:45:12;;;;;;;7.60;1.80;;;7.00;99.90;;;;;;5011081;28;20042;-64
2022/01/31 09:48:32;;;;;;;7.57;1.95;;;7.10;99.90;;;;;;5010419;28;20054;-65
2022/01/31 09:50:34;;;;;;;6.63;1.77;;;7.10;99.90;;;;;;5011545;28;20069;-64
2022/01/31 09:52:59;;;;;;;9.75;2.08;;;7.10;99.90;;;;;;5011426;28;20046;-64
2022/01/31 09:55:27;;;;;;;8.52;2.28;;;;;;;;;;5014025;28;20589;-65
2022/01/31 09:57:53;;;;;;;11.65;3.10;;;7.40;99.90;;;;;;5015383;28;20042;-64
2022/01/31 10:00:19;;;;;;;10.02;1.52;;;;;;;;;;5010034;28;20068;-62
2022/01/31 10:03:07;;;;;;;9.05;1.85;;;10.30;99.90;;;;;;5015419;28;20567;-63
2022/01/31 10:05:33;;;;;;;11.05;2.67;;;12.20;99.90;;;;;;5010344;28;20081;-63
2022/01/31 10:08:11;;;;;;;6.22;2.15;;;13.80;99.90;;;;;;5011006;28;20037;-63
2022/01/31 10:10:43;;;;;;;8.77;2.10;;;15.10;99.90;;;;;;5010192;28;20060;-63
2022/01/31 10:16:27;;;;;;;5.43;1.80;;;16.10;99.90;;;;;;5008760;28;20059;-63
2022/01/31 10:19:10;;;;;;;10.50;2.10;;;16.40;99.90;;;;;;5011007;28;20046;-63
2022/01/31 10:22:07;;;;;;;6.75;2.40;;;16.30;99.90;;;;;;5011026;28;21019;-63
2022/01/31 10:24:35;;;;;;;6.88;1.70;;;15.40;99.90;;;;;;5005270;28;20085;-63
2022/01/31 10:27:15;;;;;;;8.73;1.60;;;15.00;99.90;;;;;;5016843;28;20033;-63
2022/01/31 10:29:46;;;;;;;5.72;2.00;;;13.50;99.90;;;;;;5012449;28;20046;-64
2022/01/31 10:32:23;;;;;;;6.43;1.38;;;12.80;99.90;;;;;;5011414;28;20038;-65
2022/01/31 10:34:54;;;;;;;7.82;2.08;;;12.70;99.90;;;;;;5019191;28;20032;-64
2022/01/31 10:37:22;;;;;;;9.27;2.15;;;12.80;99.90;;;;;;5021196;28;20030;-64
2022/01/31 10:51:42;;;;;;;19.00;2.70;;;10.40;99.90;;;;;;5017504;28;20049;-64
2022/01/31 10:54:11;;;;;;;14.60;3.05;;;10.00;99.90;;;;;;5018658;28;20110;-63
2022/01/31 10:56:45;;;;;;;9.90;2.38;;;10.00;99.90;;;;;;5017616;28;20053;-63
2022/01/31 10:59:26;;;;;;;11.82;2.63;;;10.00;99.90;;;;;;5023720;28;20037;-61
2022/01/31 11:01:55;;;;;;;14.43;3.03;;;10.20;99.90;;;;;;5010293;28;20477;-63
2022/01/31 11:04:24;;;;;;;16.42;3.10;;;9.90;99.90;;;;;;5014544;28;20072;-63
2022/01/31 11:06:59;;;;;;;13.00;2.10;;;9.80;99.90;;;;;;5014230;28;20122;-64
2022/01/31 11:09:25;;;;;;;;;;;9.80;99.90;;;;;;5015348;28;20991;-64
2022/01/31 11:11:51;;;;;;;6.22;1.83;;;9.90;99.90;;;;;;5019323;28;20291;-65
2022/01/31 11:14:20;;;;;;;12.15;1.90;;;9.80;99.90;;;;;;5023681;28;20082;-64
2022/01/31 11:16:48;;;;;;;7.75;1.90;;;10.00;99.90;;;;;;5014719;28;20122;-61
2022/01/31 11:19:17;;;;;;;10.10;1.90;;;9.90;99.90;;;;;;5017232;28;20042;-65
2022/01/31 11:21:46;;;;;;;12.05;1.60;;;10.00;99.90;;;;;;5025239;28;20068;-65
2022/01/31 11:24:19;;;;;;;8.57;2.17;;;10.20;99.90;;;;;;5021336;28;20095;-65
2022/01/31 11:26:54;;;;;;;8.05;1.63;;;10.40;99.90;;;;;;5020583;28;20070;-64
2022/01/31 11:29:19;;;;;;;6.30;1.60;;;10.10;99.90;;;;;;5014134;28;20042;-64
2022/01/31 11:31:46;;;;;;;6.40;1.48;;;10.10;99.90;;;;;;5013855;28;22120;-65
2022/01/31 11:34:12;;;;;;;8.93;1.90;;;;;;;;;;5021450;28;20041;-65
2022/01/31 11:36:39;;;;;;;4.57;1.58;;;10.10;99.90;;;;;;5024792;28;20044;-65
2022/01/31 11:39:11;;;;;;;5.75;1.38;;;10.10;99.90;;;;;;5024588;28;20126;-64
2022/01/31 11:41:43;;;;;;;4.97;1.77;;;10.20;99.90;;;;;;5013637;28;20416;-64
2022/01/31 11:44:40;;;;;;;5.53;1.40;;;10.20;99.90;;;;;;5012142;28;20100;-65
2022/01/31 11:47:08;;;;;;;4.22;1.20;;;10.00;99.90;;;;;;5009439;28;20061;-63
2022/01/31 11:49:53;;;;;;;4.95;1.60;;;10.20;99.90;;;;;;5016930;28;20072;-64
2022/01/31 11:52:20;;;;;;;10.00;1.70;;;10.40;99.90;;;;;;5009633;28;20046;-64
2022/01/31 11:54:57;;;;;;;8.20;2.10;;;10.50;99.90;;;;;;5020803;28;20042;-64
2022/01/31 11:57:32;;;;;;;5.78;1.33;;;10.50;99.90;;;;;;5015956;28;20169;-64
2022/01/31 12:00:12;;;;;;;10.03;2.07;;;10.70;99.90;;;;;;5025673;28;20098;-64
2022/01/31 12:02:53;;;;;;;9.15;1.95;;;10.70;99.90;;;;;;5024222;28;20526;-64
2022/01/31 12:05:22;;;;;;;7.72;2.72;;;10.80;99.90;;;;;;5008781;28;20078;-64
2022/01/31 12:08:03;;;;;;;15.35;2.25;;;10.90;99.90;;;;;;5011557;28;20049;-63
2022/01/31 12:10:35;;;;;;;16.13;3.50;;;10.90;99.90;;;;;;4998960;28;20061;-64
2022/01/31 12:24:27;;;;;;;11.40;2.67;;;11.10;99.90;;;;;;5004285;28;20038;-63
2022/01/31 12:27:18;;;;;;;10.75;2.15;;;11.00;99.90;;;;;;5010131;28;20728;-63
2022/01/31 12:29:53;;;;;;;13.55;3.10;;;10.90;99.90;;;;;;4997218;28;20054;-63
2022/01/31 12:32:23;;;;;;;;;;;10.90;99.90;;;;;;5000929;28;20124;-63
2022/01/31 12:34:51;;;;;;;9.32;2.35;;;10.40;99.90;;;;;;5005852;28;19925;-64
2022/01/31 12:37:25;;;;;;;8.82;1.98;;;10.10;99.90;;;;;;5001391;28;20045;-63
2022/01/31 12:40:04;;;;;;;7.50;2.00;;;10.00;99.90;;;;;;5002870;28;20446;-63
2022/01/31 12:45:32;;;;;;;8.77;1.95;;;9.80;99.90;;;;;;5000756;28;20085;-63
2022/01/31 12:48:09;;;;;;;11.60;1.70;;;9.50;99.90;;;;;;5005486;28;20046;-64
2022/01/31 12:50:41;;;;;;;12.05;4.03;;;9.40;99.90;;;;;;4998219;28;20116;-63
2022/01/31 12:53:42;;;;;;;13.98;2.60;;;9.40;99.90;;;;;;4997851;28;20042;-63
2022/01/31 12:56:21;;;;;;;12.65;2.55;;;9.40;99.90;;;;;;5012868;28;20046;-64
2022/01/31 12:58:54;;;;;;;10.55;3.85;;;9.20;99.90;;;;;;5018484;28;20050;-64
2022/01/31 13:01:25;;;;;;;9.85;2.78;;;9.10;99.90;;;;;;5003939;28;20552;-63
2022/01/31 13:04:03;;;;;;;12.40;3.47;;;9.20;99.90;;;;;;5016649;28;20087;-63
2022/01/31 13:06:38;;;;;;;14.73;2.53;;;9.10;99.90;;;;;;5018826;28;20046;-63
2022/01/31 13:09:18;;;;;;;11.38;2.55;;;9.20;99.90;;;;;;5021177;28;20049;-63
2022/01/31 13:11:47;;;;;;;12.75;2.55;;;9.10;99.90;;;;;;5016273;28;20058;-63
2022/01/31 13:14:14;;;;;;;19.00;2.78;;;9.00;99.90;;;;;;5023784;28;20047;-64
2022/01/31 13:17:01;;;;;;;11.40;2.20;;;9.10;99.90;;;;;;5021898;28;20128;-63
2022/01/31 13:19:29;;;;;;;13.63;2.67;;;8.90;99.90;;;;;;5021920;28;20041;-63
2022/01/31 13:21:56;;;;;;;12.55;2.63;;;8.80;99.90;;;;;;5021292;28;20372;-63
2022/01/31 13:24:33;;;;;;;15.20;3.92;;;8.80;99.90;;;;;;5014787;28;20056;-65
2022/01/31 13:27:00;;;;;;;21.58;3.47;;;8.90;99.90;;;;;;5011773;28;20033;-64
2022/01/31 13:29:52;;;;;;;15.15;3.33;;;8.70;99.90;;;;;;5011762;28;20121;-62
2022/01/31 13:32:23;;;;;;;23.58;4.30;;;8.90;99.90;;;;;;5001088;28;20054;-64
2022/01/31 13:34:54;;;;;;;18.25;3.97;;;8.60;99.90;;;;;;5007855;28;20042;-64
2022/01/31 13:37:44;;;;;;;23.35;4.57;;;9.00;99.90;;;;;;5020137;28;20464;-63
2022/01/31 13:40:17;;;;;;;26.90;4.20;;;8.80;99.90;;;;;;5022846;28;20120;-63
2022/01/31 13:42:44;;;;;;;23.67;5.03;;;;;;;;;;5024646;28;20045;-63
2022/01/31 13:45:16;;;;;;;24.00;4.88;;;8.80;99.90;;;;;;5022618;28;20037;-64
2022/01/31 13:47:55;;;;;;;20.75;4.90;;;8.90;99.90;;;;;;5019876;28;20392;-64
2022/01/31 13:50:25;;;;;;;24.77;5.05;;;8.70;99.90;;;;;;5024011;28;20041;-63
2022/01/31 13:52:53;;;;;;;31.00;5.82;;;8.80;99.90;;;;;;4981405;28;20053;-65
2022/01/31 13:55:19;;;;;;;22.15;4.47;;;;;;;;;;5020273;28;20076;-63
2022/01/31 13:57:45;;;;;;;22.92;3.72;;;8.70;99.90;;;;;;5012803;28;20045;-64
2022/01/31 14:00:12;;;;;;;24.38;4.22;;;;;;;;;;5007240;28;20128;-64
2022/01/31 14:02:39;;;;;;;30.08;5.30;;;;;;;;;;4998442;28;20038;-64